Disclaimer

Please do not use the information listed here in-flight or in-navigation, as they are not provided to us by the airports but are provided by volunteers, so they might be outdated.

Search


Regions


Airport information page

Radio informations:
Tower (TWR) - 119.875 MHz
Approach (APP) - 118.75 MHz
RDO - 5637 MHz

Airport informations:
Latitude: 37° 26' 06.46" N
Longitude: 025° 20' 53.17" E
Elevation: 405 feet - 123 meters
Operating hours: N/A
Operating agency: Civil government, landing fees and diplomatic clearance may be required
Timezone: UTC+2(+3DT) - Last Sunday in March to last Sunday in October
Fuel: Jet A1, without icing nhibitor.

100/130 MIL Spec, low lead, aviation gasoline (BLUE)

Runway information:
16/34 - 6244 x 98 feet< - >1903 x 30 meters

Recent METARs:
LGMK 181750Z 13011KT 9999 FEW018 SCT030 17/14 Q1011
LGMK 181750Z 13011KT 9999 FEW018 SCT030 17/14 Q1011
LGMK 181750Z 13011KT 9999 FEW018 SCT030 17/14 Q1011

Airport on the map: